KGIF/GIF METAR and TAF weather

Enter ICAO airport designator
Station Type Date Time Source
KGIF METAR 2022/01/25 04:53 UTC NOAA

KGIF 250453Z AUTO 31003KT 10SM CLR 10/03 A3004 RMK AO2 SLP172 T01000028 401780033


Station Type Date Time Source
KGIF Decoded METAR 2022/01/25 04:53 UTC NOAA

WINTER HAVENS GILBERT AIRPORT , FL, United States (KGIF) 28-04N 81-45W 43M
Jan 24, 2022 - 11:53 PM EST / 2022.01.25 0453 UTC
Wind: from the NW (310 degrees) at 3 MPH (3 KT):0
Visibility: 10 mile(s):0
Sky conditions: clear
Temperature: 50.0 F (10.0 C)
Dew Point: 37.0 F (2.8 C)
Relative Humidity: 60%
Pressure (altimeter): 30.04 in. Hg (1017 hPa)
ob: KGIF 250453Z AUTO 31003KT 10SM CLR 10/03 A3004 RMK AO2 SLP172 T01000028 401780033
cycle: 5

Station Type Date Time Source
KGIF TAF UTC NOAA

Error!

Example: see airport list